createdAt,value
2018-07-28T00:00:41.873Z,0.00
2018-07-28T00:01:41.689Z,0.00
2018-07-28T00:02:41.634Z,0.00
2018-07-28T00:03:41.516Z,0.00
2018-07-28T00:04:41.428Z,0.00
2018-07-28T00:05:41.342Z,0.00
2018-07-28T00:06:41.253Z,0.00
2018-07-28T00:07:41.290Z,0.00
2018-07-28T00:08:41.077Z,0.00
2018-07-28T00:09:40.994Z,0.00
2018-07-28T00:10:40.910Z,0.00
2018-07-28T00:11:40.815Z,0.00
2018-07-28T00:12:40.760Z,0.00
2018-07-28T00:13:40.640Z,0.00
2018-07-28T00:14:40.553Z,0.00
2018-07-28T00:15:40.468Z,0.00
2018-07-28T00:16:40.379Z,0.00
2018-07-28T00:17:40.324Z,0.00
2018-07-28T00:18:40.204Z,0.00
2018-07-28T00:19:40.119Z,0.00
2018-07-28T00:20:40.031Z,0.00
2018-07-28T00:21:40.038Z,0.00
2018-07-28T00:22:39.886Z,0.00
2018-07-28T00:23:39.768Z,0.00
2018-07-28T00:24:39.682Z,0.00
2018-07-28T00:25:39.597Z,0.00
2018-07-28T00:26:39.502Z,0.00
2018-07-28T00:27:39.446Z,0.00
2018-07-28T00:28:39.426Z,0.00
2018-07-28T00:29:39.241Z,0.00
2018-07-28T00:30:39.158Z,0.00
2018-07-28T00:31:39.067Z,0.00
2018-07-28T00:32:38.983Z,0.00
2018-07-28T00:33:38.924Z,0.00
2018-07-28T00:34:38.807Z,0.00
2018-07-28T00:35:38.811Z,0.00
2018-07-28T00:36:38.633Z,0.00
2018-07-28T00:37:38.591Z,0.00
2018-07-28T00:38:38.455Z,0.00
2018-07-28T00:39:38.366Z,0.00
2018-07-28T00:40:38.281Z,0.00
2018-07-28T00:41:38.192Z,0.00
2018-07-28T00:42:38.200Z,0.00
2018-07-28T00:43:38.048Z,0.00
2018-07-28T00:44:37.929Z,0.00
2018-07-28T00:45:37.848Z,0.00
2018-07-28T00:46:37.761Z,0.00
2018-07-28T00:47:37.673Z,0.00
2018-07-28T00:48:37.615Z,0.00
2018-07-28T00:49:37.583Z,0.00
2018-07-28T00:50:37.408Z,0.00
2018-07-28T00:51:37.321Z,0.00
2018-07-28T00:52:37.233Z,0.00
2018-07-28T00:53:37.176Z,0.00
2018-07-28T00:54:37.058Z,0.00
2018-07-28T00:55:36.968Z,0.00
2018-07-28T00:56:36.991Z,0.00
2018-07-28T00:57:36.798Z,0.00
2018-07-28T00:58:36.736Z,0.00
2018-07-28T00:59:36.619Z,0.00
2018-07-28T01:00:36.536Z,0.00
2018-07-28T01:01:36.445Z,0.00
2018-07-28T01:02:36.357Z,0.00
2018-07-28T01:03:36.393Z,0.00
2018-07-28T01:04:36.184Z,0.00
2018-07-28T01:05:36.095Z,0.00
2018-07-28T01:06:36.011Z,0.00
2018-07-28T01:07:35.919Z,0.00
2018-07-28T01:08:35.865Z,0.00
2018-07-28T01:09:35.756Z,0.00
2018-07-28T01:10:35.763Z,0.00
2018-07-28T01:11:35.571Z,0.00
2018-07-28T01:12:35.483Z,0.00
2018-07-28T01:13:35.430Z,0.00
2018-07-28T01:14:35.310Z,0.00
2018-07-28T01:15:35.224Z,0.00
2018-07-28T01:16:35.132Z,0.00
2018-07-28T01:17:35.136Z,0.00
2018-07-28T01:18:34.989Z,0.00
2018-07-28T01:19:34.872Z,0.00
2018-07-28T01:20:34.782Z,0.00
2018-07-28T01:21:34.696Z,0.00
2018-07-28T01:22:34.607Z,0.00
2018-07-28T01:23:34.549Z,0.00
2018-07-28T01:24:34.528Z,0.00
2018-07-28T01:25:34.347Z,0.00
2018-07-28T01:26:34.257Z,0.00
2018-07-28T01:27:34.169Z,0.00
2018-07-28T01:28:34.113Z,0.00
2018-07-28T01:29:33.996Z,0.00
2018-07-28T01:30:33.909Z,0.00
2018-07-28T01:31:33.920Z,0.00
2018-07-28T01:32:33.733Z,0.00
2018-07-28T01:33:33.679Z,0.00
2018-07-28T01:34:33.558Z,0.00
2018-07-28T01:35:33.469Z,0.00
2018-07-28T01:36:33.382Z,0.00
2018-07-28T01:37:33.415Z,0.00
2018-07-28T01:38:33.239Z,0.00
2018-07-28T01:39:33.119Z,0.00
2018-07-28T01:40:33.028Z,0.00
2018-07-28T01:41:32.960Z,0.00
2018-07-28T01:42:32.857Z,0.00
2018-07-28T01:43:32.797Z,0.00
2018-07-28T01:44:32.773Z,0.00
2018-07-28T01:45:32.594Z,0.00
2018-07-28T01:46:32.509Z,0.00
2018-07-28T01:47:32.418Z,0.00
2018-07-28T01:48:32.359Z,0.00
2018-07-28T01:49:32.260Z,0.00
2018-07-28T01:50:32.159Z,0.00
2018-07-28T01:51:32.068Z,0.00
2018-07-28T01:52:31.979Z,0.00
2018-07-28T01:53:31.921Z,0.00
2018-07-28T01:54:31.807Z,0.00
2018-07-28T01:55:31.719Z,0.00
2018-07-28T01:56:31.630Z,0.00
2018-07-28T01:57:31.544Z,0.00
2018-07-28T01:58:31.484Z,0.00
2018-07-28T01:59:31.364Z,0.00
2018-07-28T02:00:31.279Z,0.00
2018-07-28T02:01:31.191Z,0.00
2018-07-28T02:02:31.103Z,0.00
2018-07-28T02:03:31.048Z,0.00
2018-07-28T02:04:30.927Z,0.00
2018-07-28T02:05:30.841Z,0.00
2018-07-28T02:06:30.756Z,0.00
2018-07-28T02:07:30.666Z,0.00
2018-07-28T02:08:30.578Z,0.00
2018-07-28T02:09:30.520Z,0.00
2018-07-28T02:10:30.401Z,0.00
2018-07-28T02:11:30.313Z,0.00
2018-07-28T02:12:30.231Z,0.00
2018-07-28T02:13:30.152Z,0.00
2018-07-28T02:14:30.082Z,0.00
2018-07-28T02:15:29.962Z,0.00
2018-07-28T02:16:29.875Z,0.00
2018-07-28T02:17:29.786Z,0.00
2018-07-28T02:18:29.700Z,0.00
2018-07-28T02:19:29.643Z,0.00
2018-07-28T02:20:29.527Z,0.00
2018-07-28T02:21:29.437Z,0.00
2018-07-28T02:22:29.348Z,0.00
2018-07-28T02:23:29.262Z,0.00
2018-07-28T02:24:29.217Z,0.00
2018-07-28T02:25:29.088Z,0.00
2018-07-28T02:26:28.995Z,0.00
2018-07-28T02:27:28.917Z,0.00
2018-07-28T02:28:28.819Z,0.00
2018-07-28T02:29:28.766Z,0.00
2018-07-28T02:30:28.644Z,0.00
2018-07-28T02:31:28.559Z,0.00
2018-07-28T02:32:28.470Z,0.00
2018-07-28T02:33:28.386Z,0.00
2018-07-28T02:34:28.327Z,0.00
2018-07-28T02:35:28.208Z,0.00
2018-07-28T02:36:28.121Z,0.00
2018-07-28T02:37:28.036Z,0.00
2018-07-28T02:38:27.943Z,0.00
2018-07-28T02:39:27.885Z,0.00
2018-07-28T02:40:27.770Z,0.00
2018-07-28T02:41:27.681Z,0.00
2018-07-28T02:42:27.592Z,0.00
2018-07-28T02:43:27.509Z,0.00
2018-07-28T02:44:27.446Z,0.00
2018-07-28T02:45:27.328Z,0.00
2018-07-28T02:46:27.240Z,0.00
2018-07-28T02:47:27.151Z,0.00
2018-07-28T02:48:27.062Z,0.00
2018-07-28T02:49:27.004Z,0.00
2018-07-28T02:50:26.886Z,0.00
2018-07-28T02:51:26.802Z,0.00
2018-07-28T02:52:26.714Z,0.00
2018-07-28T02:53:26.624Z,0.00
2018-07-28T02:54:26.570Z,0.00
2018-07-28T02:55:26.447Z,4.00
2018-07-28T02:56:26.361Z,4.00
2018-07-28T02:57:26.273Z,0.00
2018-07-28T02:58:26.188Z,4.00
2018-07-28T02:59:26.144Z,4.00
2018-07-28T03:00:26.011Z,4.00
2018-07-28T03:01:26.014Z,4.00
2018-07-28T03:02:25.834Z,8.00
2018-07-28T03:03:25.744Z,8.00
2018-07-28T03:04:25.688Z,8.00
2018-07-28T03:05:25.566Z,8.00
2018-07-28T03:06:25.482Z,8.00
2018-07-28T03:07:25.391Z,12.00
2018-07-28T03:08:25.304Z,16.00
2018-07-28T03:09:25.249Z,16.00
2018-07-28T03:10:25.127Z,20.00
2018-07-28T03:11:25.039Z,20.00
2018-07-28T03:12:24.954Z,24.00
2018-07-28T03:13:24.866Z,28.00
2018-07-28T03:14:24.807Z,32.00
2018-07-28T03:15:24.779Z,36.00
2018-07-28T03:16:24.603Z,40.00
2018-07-28T03:17:24.512Z,48.00
2018-07-28T03:18:24.441Z,56.00
2018-07-28T03:19:24.366Z,64.00
2018-07-28T03:20:24.255Z,72.00
2018-07-28T03:21:24.166Z,76.00
2018-07-28T03:22:24.168Z,88.00
2018-07-28T03:23:23.988Z,96.00
2018-07-28T03:24:23.932Z,104.00
2018-07-28T03:25:23.806Z,116.00
2018-07-28T03:26:23.719Z,124.00
2018-07-28T03:27:23.636Z,140.00
2018-07-28T03:28:23.550Z,152.00
2018-07-28T03:29:23.565Z,164.00
2018-07-28T03:30:23.369Z,180.00
2018-07-28T03:31:23.283Z,196.00
2018-07-28T03:32:23.195Z,216.00
2018-07-28T03:33:23.107Z,228.00
2018-07-28T03:34:23.046Z,248.00
2018-07-28T03:35:22.929Z,264.00
2018-07-28T03:36:22.934Z,288.00
2018-07-28T03:37:30.612Z,308.00
2018-07-28T03:38:22.664Z,328.00
2018-07-28T03:39:22.580Z,352.00
2018-07-28T03:40:22.909Z,376.00
2018-07-28T03:41:22.404Z,408.00
2018-07-28T03:42:30.128Z,428.00
2018-07-28T03:43:22.227Z,456.00
2018-07-28T03:44:22.141Z,488.00
2018-07-28T03:45:22.082Z,512.00
2018-07-28T03:46:21.963Z,532.00
2018-07-28T03:47:22.155Z,552.00
2018-07-28T03:48:21.785Z,572.00
2018-07-28T03:49:21.773Z,588.00
2018-07-28T03:50:21.642Z,604.00
2018-07-28T03:51:21.525Z,604.00
2018-07-28T03:52:21.434Z,616.00
2018-07-28T03:53:21.349Z,636.00
2018-07-28T03:54:21.353Z,668.00
2018-07-28T03:55:21.203Z,704.00
2018-07-28T03:56:21.083Z,748.00
2018-07-28T03:57:20.998Z,788.00
2018-07-28T03:58:20.909Z,828.00
2018-07-28T03:59:20.820Z,876.00
2018-07-28T04:00:20.765Z,920.00
2018-07-28T04:01:20.752Z,956.00
2018-07-28T04:02:20.556Z,1004.00
2018-07-28T04:03:20.470Z,1060.00
2018-07-28T04:04:20.382Z,1120.00
2018-07-28T04:05:20.326Z,1172.00
2018-07-28T04:06:20.206Z,1204.00
2018-07-28T04:07:20.119Z,1228.00
2018-07-28T04:08:20.123Z,1248.00
2018-07-28T04:09:19.946Z,1288.00
2018-07-28T04:10:19.886Z,1352.00
2018-07-28T04:11:19.767Z,1440.00
2018-07-28T04:12:19.679Z,1524.00
2018-07-28T04:13:19.593Z,1592.00
2018-07-28T04:14:19.555Z,1656.00
2018-07-28T04:15:19.539Z,1704.00
2018-07-28T04:16:19.328Z,1748.00
2018-07-28T04:17:19.240Z,1784.00
2018-07-28T04:18:19.154Z,1812.00
2018-07-28T04:19:19.065Z,1844.00
2018-07-28T04:20:19.009Z,1876.00
2018-07-28T04:21:18.890Z,1920.00
2018-07-28T04:22:18.904Z,1952.00
2018-07-28T04:23:18.716Z,1964.00
2018-07-28T04:24:18.629Z,1960.00
2018-07-28T04:25:18.570Z,1944.00
2018-07-28T04:26:18.449Z,1920.00
2018-07-28T04:27:18.362Z,1896.00
2018-07-28T04:28:18.278Z,1872.00
2018-07-28T04:29:18.279Z,1852.00
2018-07-28T04:30:18.132Z,1844.00
2018-07-28T04:31:18.014Z,1856.00
2018-07-28T04:32:17.928Z,1876.00
2018-07-28T04:33:17.847Z,1892.00
2018-07-28T04:34:17.749Z,1920.00
2018-07-28T04:35:17.691Z,1956.00
2018-07-28T04:36:17.667Z,1996.00
2018-07-28T04:37:17.488Z,2040.00
2018-07-28T04:38:17.396Z,2080.00
2018-07-28T04:39:17.309Z,2128.00
2018-07-28T04:40:17.254Z,2184.00
2018-07-28T04:41:17.135Z,2256.00
2018-07-28T04:42:17.044Z,2344.00
2018-07-28T04:43:17.053Z,2440.00
2018-07-28T04:44:16.873Z,2552.00
2018-07-28T04:45:16.816Z,2652.00
2018-07-28T04:46:16.695Z,2760.00
2018-07-28T04:47:16.607Z,2856.00
2018-07-28T04:48:16.520Z,2956.00
2018-07-28T04:49:16.430Z,3060.00
2018-07-28T04:50:16.469Z,3176.00
2018-07-28T04:51:16.256Z,3308.00
2018-07-28T04:52:16.167Z,3432.00
2018-07-28T04:53:16.082Z,3584.00
2018-07-28T04:54:15.995Z,3768.00
2018-07-28T04:55:15.935Z,4652.00
2018-07-28T04:56:15.940Z,5408.00
2018-07-28T04:57:15.729Z,4744.00
2018-07-28T04:58:15.643Z,4368.00
2018-07-28T04:59:15.558Z,4632.00
2018-07-28T05:00:15.497Z,4624.00
2018-07-28T05:01:15.376Z,4680.00
2018-07-28T05:02:15.288Z,4768.00
2018-07-28T05:03:15.205Z,4996.00
2018-07-28T05:04:15.112Z,4988.00
2018-07-28T05:05:15.056Z,5044.00
2018-07-28T05:06:14.939Z,5228.00
2018-07-28T05:07:14.875Z,5072.00
2018-07-28T05:08:14.763Z,5064.00
2018-07-28T05:09:14.675Z,5088.00
2018-07-28T05:10:14.590Z,5532.00
2018-07-28T05:11:14.628Z,5708.00
2018-07-28T05:12:14.414Z,6100.00
2018-07-28T05:13:14.326Z,6060.00
2018-07-28T05:14:14.241Z,5416.00
2018-07-28T05:15:14.154Z,5784.00
2018-07-28T05:16:14.103Z,5628.00
2018-07-28T05:17:14.105Z,5516.00
2018-07-28T05:18:13.890Z,5572.00
2018-07-28T05:19:13.802Z,5348.00
2018-07-28T05:20:13.716Z,5284.00
2018-07-28T05:21:13.659Z,5304.00
2018-07-28T05:22:13.543Z,5448.00
2018-07-28T05:23:13.453Z,5612.00
2018-07-28T05:24:13.367Z,5588.00
2018-07-28T05:25:13.281Z,5460.00
2018-07-28T05:26:13.224Z,5572.00
2018-07-28T05:27:13.104Z,5984.00
2018-07-28T05:28:13.017Z,6296.00
2018-07-28T05:29:12.932Z,7072.00
2018-07-28T05:30:12.845Z,6428.00
2018-07-28T05:31:12.794Z,6676.00
2018-07-28T05:32:12.668Z,6224.00
2018-07-28T05:33:12.582Z,6272.00
2018-07-28T05:34:12.498Z,6504.00
2018-07-28T05:35:12.409Z,7032.00
2018-07-28T05:36:12.355Z,6976.00
2018-07-28T05:37:12.273Z,6988.00
2018-07-28T05:38:12.149Z,7300.00
2018-07-28T05:39:12.063Z,6992.00
2018-07-28T05:40:11.974Z,6672.00
2018-07-28T05:41:11.922Z,6960.00
2018-07-28T05:42:11.800Z,7448.00
2018-07-28T05:43:11.715Z,6812.00
2018-07-28T05:44:11.628Z,6944.00
2018-07-28T05:45:11.540Z,6948.00
2018-07-28T05:46:11.487Z,7012.00
2018-07-28T05:47:11.369Z,7048.00
2018-07-28T05:48:11.284Z,7260.00
2018-07-28T05:49:11.196Z,7448.00
2018-07-28T05:50:11.183Z,7788.00
2018-07-28T05:51:11.054Z,7876.00
2018-07-28T05:52:10.932Z,8408.00
2018-07-28T05:53:10.855Z,9176.00
2018-07-28T05:54:10.763Z,8524.00
2018-07-28T05:55:10.676Z,9868.00
2018-07-28T05:56:10.617Z,7800.00
2018-07-28T05:57:10.504Z,7500.00
2018-07-28T05:58:10.418Z,7612.00
2018-07-28T05:59:10.330Z,7484.00
2018-07-28T06:00:10.241Z,7708.00
2018-07-28T06:01:10.580Z,7420.00
2018-07-28T06:02:10.125Z,7736.00
2018-07-28T06:03:09.983Z,8136.00
2018-07-28T06:04:09.904Z,8188.00
2018-07-28T06:05:09.812Z,8356.00
2018-07-28T06:06:09.765Z,8408.00
2018-07-28T06:07:09.641Z,8048.00
2018-07-28T06:08:09.552Z,8252.00
2018-07-28T06:09:09.468Z,8248.00
2018-07-28T06:10:09.383Z,7904.00
2018-07-28T06:11:09.325Z,7912.00
2018-07-28T06:12:09.213Z,8004.00
2018-07-28T06:13:09.125Z,8480.00
2018-07-28T06:14:09.085Z,8688.00
2018-07-28T06:15:08.953Z,8232.00
2018-07-28T06:16:08.896Z,8176.00
2018-07-28T06:17:08.784Z,8780.00
2018-07-28T06:18:08.696Z,8812.00
2018-07-28T06:19:08.609Z,8392.00
2018-07-28T06:20:08.586Z,8076.00
2018-07-28T06:21:08.466Z,8108.00
2018-07-28T06:22:08.353Z,8016.00
2018-07-28T06:23:08.265Z,8052.00
2018-07-28T06:24:08.180Z,8092.00
2018-07-28T06:25:08.093Z,8104.00
2018-07-28T06:26:08.040Z,8192.00
2018-07-28T06:27:07.923Z,8284.00
2018-07-28T06:28:07.837Z,8260.00
2018-07-28T06:29:07.752Z,9600.00
2018-07-28T06:30:07.668Z,8872.00
2018-07-28T06:31:10.626Z,8824.00
2018-07-28T06:32:07.494Z,9184.00
2018-07-28T06:33:07.409Z,9780.00
2018-07-28T06:34:07.324Z,10088.00
2018-07-28T06:35:07.234Z,10208.00
2018-07-28T06:36:07.181Z,9176.00
2018-07-28T06:37:07.068Z,8856.00
2018-07-28T06:38:06.982Z,8816.00
2018-07-28T06:39:06.894Z,8744.00
2018-07-28T06:40:06.808Z,8896.00
2018-07-28T06:41:06.727Z,9148.00
2018-07-28T06:42:06.672Z,9252.00
2018-07-28T06:43:06.573Z,10780.00
2018-07-28T06:44:06.469Z,12056.00
2018-07-28T06:45:06.381Z,16560.00
2018-07-28T06:46:06.302Z,23392.00
2018-07-28T06:47:06.242Z,20224.00
2018-07-28T06:48:06.125Z,24896.00
2018-07-28T06:49:06.134Z,29248.00
2018-07-28T06:50:05.955Z,29312.00
2018-07-28T06:51:05.873Z,29280.00
2018-07-28T06:52:05.817Z,29728.00
2018-07-28T06:53:05.701Z,30304.00
2018-07-28T06:54:05.634Z,31104.00
2018-07-28T06:55:05.534Z,32032.00
2018-07-28T06:56:05.590Z,32544.00
2018-07-28T06:57:05.396Z,32544.00
2018-07-28T06:58:05.278Z,32864.00
2018-07-28T06:59:05.193Z,32832.00
2018-07-28T07:00:05.114Z,33664.00
2018-07-28T07:01:05.027Z,35712.00
2018-07-28T07:02:04.976Z,38880.00
2018-07-28T07:03:04.958Z,43808.00
2018-07-28T07:04:04.778Z,41856.00
2018-07-28T07:05:04.696Z,37728.00
2018-07-28T07:06:04.613Z,35104.00
2018-07-28T07:07:04.573Z,35104.00
2018-07-28T07:08:04.448Z,34912.00
2018-07-28T07:09:04.368Z,34592.00
2018-07-28T07:10:04.377Z,34016.00
2018-07-28T07:11:04.207Z,34144.00
2018-07-28T07:12:04.155Z,34752.00
2018-07-28T07:13:04.038Z,35264.00
2018-07-28T07:14:03.955Z,35456.00
2018-07-28T07:15:03.872Z,35552.00
2018-07-28T07:16:03.796Z,35616.00
2018-07-28T07:17:03.836Z,36000.00
2018-07-28T07:18:03.631Z,35840.00
2018-07-28T07:19:03.547Z,35712.00
2018-07-28T07:20:03.471Z,35808.00
2018-07-28T07:21:03.385Z,36128.00
2018-07-28T07:22:03.341Z,36032.00
2018-07-28T07:23:03.221Z,36032.00
2018-07-28T07:24:03.235Z,35968.00
2018-07-28T07:25:03.062Z,36032.00
2018-07-28T07:26:02.982Z,36256.00
2018-07-28T07:27:02.933Z,36736.00
2018-07-28T07:28:02.835Z,36704.00
2018-07-28T07:29:02.741Z,37056.00
2018-07-28T07:30:02.658Z,37984.00
2018-07-28T07:31:02.669Z,38784.00
2018-07-28T07:32:02.527Z,39264.00
2018-07-28T07:33:02.416Z,39296.00
2018-07-28T07:34:02.335Z,39424.00
2018-07-28T07:35:02.257Z,39968.00
2018-07-28T07:36:02.184Z,40288.00
2018-07-28T07:37:02.124Z,40224.00
2018-07-28T07:38:02.109Z,40096.00
2018-07-28T07:39:01.940Z,39840.00
2018-07-28T07:40:01.857Z,39840.00
2018-07-28T07:41:01.777Z,40000.00
2018-07-28T07:42:01.726Z,40160.00
2018-07-28T07:43:01.615Z,40416.00
2018-07-28T07:44:01.536Z,40384.00
2018-07-28T07:45:01.550Z,40352.00
2018-07-28T07:46:01.376Z,40480.00
2018-07-28T07:47:01.330Z,40928.00
2018-07-28T07:48:01.216Z,41888.00
2018-07-28T07:49:01.141Z,45312.00
2018-07-28T07:50:01.058Z,49600.00
2018-07-28T07:51:00.994Z,54080.00
2018-07-28T07:52:01.020Z,52352.00
2018-07-28T07:53:00.821Z,55200.00
2018-07-28T07:54:00.844Z,58624.00
2018-07-28T07:55:00.658Z,58976.00
2018-07-28T07:56:00.578Z,58144.00
2018-07-28T07:57:00.531Z,56512.00
2018-07-28T07:58:00.510Z,54336.00
2018-07-28T07:59:00.341Z,54240.00
2018-07-28T08:00:00.263Z,54304.00
2018-07-28T08:01:00.180Z,56576.00
2018-07-28T08:02:00.133Z,58784.00
2018-07-28T08:03:00.040Z,61216.00
2018-07-28T08:03:59.941Z,59584.00
2018-07-28T08:04:59.866Z,57824.00
2018-07-28T08:05:59.783Z,54496.00
2018-07-28T08:06:59.703Z,53472.00
2018-07-28T08:07:59.655Z,55264.00
2018-07-28T08:08:59.546Z,58528.00
2018-07-28T08:09:59.464Z,61920.00
2018-07-28T08:10:59.385Z,63456.00
2018-07-28T08:11:59.311Z,65056.00
2018-07-28T08:12:59.256Z,64864.00
2018-07-28T08:13:59.148Z,63264.00
2018-07-28T08:14:59.069Z,63904.00
2018-07-28T08:15:58.992Z,62528.00
2018-07-28T08:16:58.913Z,64960.00
2018-07-28T08:17:58.864Z,72000.00
2018-07-28T08:18:58.848Z,69632.00
2018-07-28T08:19:58.670Z,67712.00
2018-07-28T08:20:58.615Z,66688.00
2018-07-28T08:21:58.522Z,66656.00
2018-07-28T08:22:58.464Z,65280.00
2018-07-28T08:23:58.354Z,66528.00
2018-07-28T08:24:58.274Z,69472.00
2018-07-28T08:25:58.304Z,70848.00
2018-07-28T08:26:58.121Z,72384.00
2018-07-28T08:27:58.070Z,71200.00
2018-07-28T08:28:57.960Z,72448.00
2018-07-28T08:29:57.883Z,71712.00
2018-07-28T08:30:57.802Z,72192.00
2018-07-28T08:31:57.722Z,73856.00
2018-07-28T08:32:57.772Z,71328.00
2018-07-28T08:33:57.568Z,66272.00
2018-07-28T08:34:57.488Z,70496.00
2018-07-28T08:35:57.410Z,69760.00
2018-07-28T08:36:57.331Z,70976.00
2018-07-28T08:37:57.325Z,75552.00
2018-07-28T08:38:57.187Z,76928.00
2018-07-28T08:39:57.208Z,73408.00
2018-07-28T08:40:57.020Z,68000.00
2018-07-28T08:41:56.938Z,66752.00
2018-07-28T08:42:56.893Z,65024.00
2018-07-28T08:43:56.783Z,64960.00
2018-07-28T08:44:56.704Z,67968.00
2018-07-28T08:45:56.626Z,69472.00
2018-07-28T08:46:56.643Z,71488.00
2018-07-28T08:47:56.502Z,75008.00
2018-07-28T08:48:56.456Z,70976.00
2018-07-28T08:49:56.311Z,73280.00
2018-07-28T08:50:56.239Z,74336.00
2018-07-28T08:51:56.155Z,79616.00
2018-07-28T08:52:56.109Z,79456.00
2018-07-28T08:53:56.094Z,79936.00
2018-07-28T08:54:55.918Z,82784.00
2018-07-28T08:55:55.844Z,78592.00
2018-07-28T08:56:55.767Z,80448.00
2018-07-28T08:57:55.719Z,81344.00
2018-07-28T08:58:55.607Z,79456.00
2018-07-28T08:59:55.532Z,81632.00
2018-07-28T09:00:55.548Z,83168.00
2018-07-28T09:01:55.378Z,76832.00
2018-07-28T09:02:55.342Z,74816.00
2018-07-28T09:03:55.222Z,73472.00
2018-07-28T09:04:55.141Z,79584.00
2018-07-28T09:05:55.089Z,78304.00
2018-07-28T09:06:54.987Z,77760.00
2018-07-28T09:07:55.036Z,81376.00
2018-07-28T09:08:54.834Z,82912.00
2018-07-28T09:09:54.758Z,82624.00
2018-07-28T09:10:54.677Z,81888.00
2018-07-28T09:11:54.604Z,83872.00
2018-07-28T09:12:54.556Z,82176.00
2018-07-28T09:13:54.448Z,77408.00
2018-07-28T09:14:54.472Z,74848.00
2018-07-28T09:15:54.292Z,75200.00
2018-07-28T09:16:54.217Z,79072.00
2018-07-28T09:17:54.206Z,85536.00
2018-07-28T09:18:54.060Z,83872.00
2018-07-28T09:19:53.985Z,85536.00
2018-07-28T09:20:53.908Z,81216.00
2018-07-28T09:21:53.924Z,79520.00
2018-07-28T09:22:53.784Z,73664.00
2018-07-28T09:23:53.679Z,64352.00
2018-07-28T09:24:53.599Z,67840.00
2018-07-28T09:25:53.523Z,70848.00
2018-07-28T09:26:53.446Z,74624.00
2018-07-28T09:27:53.397Z,76224.00
2018-07-28T09:28:53.291Z,80320.00
2018-07-28T09:29:53.217Z,73216.00
2018-07-28T09:30:53.138Z,74592.00
2018-07-28T09:31:53.066Z,78944.00
2018-07-28T09:32:53.022Z,83520.00
2018-07-28T09:33:52.914Z,89696.00
2018-07-28T09:34:52.832Z,89696.00
2018-07-28T09:35:52.762Z,87520.00
2018-07-28T09:36:52.689Z,85408.00
2018-07-28T09:37:52.608Z,85664.00
2018-07-28T09:38:52.561Z,85248.00
2018-07-28T09:39:52.452Z,90528.00
2018-07-28T09:40:52.380Z,89248.00
2018-07-28T09:41:52.303Z,96000.00
2018-07-28T09:42:52.256Z,97344.00
2018-07-28T09:43:52.151Z,96352.00
2018-07-28T09:44:52.079Z,104832.00
2018-07-28T09:45:52.001Z,103872.00
2018-07-28T09:46:51.929Z,106912.00
2018-07-28T09:47:51.847Z,106464.00
2018-07-28T09:48:51.804Z,102528.00
2018-07-28T09:49:51.699Z,97216.00
2018-07-28T09:50:51.621Z,93632.00
2018-07-28T09:51:51.547Z,97408.00
2018-07-28T09:52:51.475Z,94272.00
2018-07-28T09:53:51.430Z,93504.00
2018-07-28T09:54:51.323Z,90720.00
2018-07-28T09:55:51.246Z,91424.00
2018-07-28T09:56:51.174Z,91584.00
2018-07-28T09:57:51.101Z,90720.00
2018-07-28T09:58:51.053Z,88544.00
2018-07-28T09:59:50.949Z,83712.00
2018-07-28T10:00:50.880Z,82144.00
2018-07-28T10:01:50.800Z,78432.00
2018-07-28T10:02:50.726Z,75840.00
2018-07-28T10:03:50.691Z,76928.00
2018-07-28T10:04:50.576Z,79136.00
2018-07-28T10:05:50.509Z,81280.00
2018-07-28T10:06:50.426Z,75552.00
2018-07-28T10:07:50.357Z,88096.00
2018-07-28T10:08:50.312Z,98816.00
2018-07-28T10:09:50.209Z,89632.00
2018-07-28T10:10:50.130Z,94496.00
2018-07-28T10:11:50.055Z,85344.00
2018-07-28T10:12:49.982Z,90240.00
2018-07-28T10:13:49.936Z,93696.00
2018-07-28T10:14:49.834Z,80448.00
2018-07-28T10:15:49.755Z,80832.00
2018-07-28T10:16:49.683Z,82400.00
2018-07-28T10:17:49.609Z,77376.00
2018-07-28T10:18:49.570Z,86496.00
2018-07-28T10:19:49.461Z,100256.00
2018-07-28T10:20:49.385Z,99872.00
2018-07-28T10:21:49.312Z,111520.00
2018-07-28T10:22:49.257Z,106784.00
2018-07-28T10:23:49.194Z,102656.00
2018-07-28T10:24:49.091Z,101408.00
2018-07-28T10:25:49.018Z,13104.00
2018-07-28T10:26:48.944Z,9812.00
2018-07-28T10:27:48.870Z,9088.00
2018-07-28T10:28:48.831Z,8828.00
2018-07-28T10:29:48.721Z,8864.00
2018-07-28T10:30:48.649Z,9080.00
2018-07-28T10:31:48.571Z,9396.00
2018-07-28T10:32:48.496Z,9548.00
2018-07-28T10:33:48.457Z,9500.00
2018-07-28T10:34:48.358Z,9484.00
2018-07-28T10:35:48.273Z,9264.00
2018-07-28T10:36:48.292Z,9064.00
2018-07-28T10:37:48.124Z,8640.00
2018-07-28T10:38:48.074Z,8024.00
2018-07-28T10:39:47.969Z,7644.00
2018-07-28T10:40:47.903Z,7384.00
2018-07-28T10:41:47.818Z,6948.00
2018-07-28T10:42:47.740Z,6280.00
2018-07-28T10:43:47.695Z,5468.00
2018-07-28T10:44:47.591Z,4508.00
2018-07-28T10:45:47.514Z,3652.00
2018-07-28T10:46:47.435Z,3040.00
2018-07-28T10:47:47.361Z,2552.00
2018-07-28T10:48:47.311Z,2268.00
2018-07-28T10:49:47.204Z,2168.00
2018-07-28T10:50:47.125Z,2236.00
2018-07-28T10:51:47.063Z,2412.00
2018-07-28T10:52:46.968Z,2504.00
2018-07-28T10:53:46.918Z,2640.00
2018-07-28T10:54:46.815Z,2716.00
2018-07-28T10:55:46.734Z,2964.00
2018-07-28T10:56:46.656Z,3100.00
2018-07-28T10:57:46.574Z,3100.00
2018-07-28T10:58:46.520Z,3060.00
2018-07-28T10:59:46.414Z,3084.00
2018-07-28T11:00:46.332Z,3628.00
2018-07-28T11:01:46.254Z,3728.00
2018-07-28T11:02:46.175Z,4004.00
2018-07-28T11:03:46.120Z,4440.00
2018-07-28T11:04:46.013Z,4768.00
2018-07-28T11:05:46.031Z,5432.00
2018-07-28T11:06:45.843Z,6124.00
2018-07-28T11:07:45.761Z,6304.00
2018-07-28T11:08:45.681Z,6632.00
2018-07-28T11:09:45.625Z,6992.00
2018-07-28T11:10:45.511Z,7324.00
2018-07-28T11:11:45.430Z,7612.00
2018-07-28T11:12:45.442Z,7852.00
2018-07-28T11:13:45.265Z,8108.00
2018-07-28T11:14:45.207Z,8456.00
2018-07-28T11:15:45.098Z,8952.00
2018-07-28T11:16:45.008Z,9588.00
2018-07-28T11:17:44.922Z,10388.00
2018-07-28T11:18:44.907Z,11344.00
2018-07-28T11:19:44.877Z,12368.00
2018-07-28T11:20:44.669Z,13396.00
2018-07-28T11:21:44.581Z,14416.00
2018-07-28T11:22:44.495Z,15440.00
2018-07-28T11:23:44.413Z,16504.00
2018-07-28T11:24:44.356Z,17696.00
2018-07-28T11:25:44.236Z,18848.00
2018-07-28T11:26:44.255Z,20000.00
2018-07-28T11:27:44.068Z,21152.00
2018-07-28T11:28:43.982Z,22208.00
2018-07-28T11:29:43.928Z,23296.00
2018-07-28T11:30:43.810Z,24512.00
2018-07-28T11:31:43.771Z,25632.00
2018-07-28T11:32:43.635Z,26656.00
2018-07-28T11:33:43.646Z,27296.00
2018-07-28T11:34:43.492Z,27456.00
2018-07-28T11:35:43.376Z,27104.00
2018-07-28T11:36:43.290Z,26464.00
2018-07-28T11:37:43.203Z,26624.00
2018-07-28T11:38:43.120Z,28672.00
2018-07-28T11:39:43.064Z,33248.00
2018-07-28T11:40:43.037Z,36000.00
2018-07-28T11:41:42.859Z,38496.00
2018-07-28T11:42:42.770Z,36512.00
2018-07-28T11:43:42.702Z,29952.00
2018-07-28T11:44:42.632Z,37376.00
2018-07-28T11:45:42.524Z,71488.00
2018-07-28T11:46:42.429Z,82240.00
2018-07-28T11:47:42.439Z,101568.00
2018-07-28T11:48:42.252Z,105088.00
2018-07-28T11:49:42.197Z,104960.00
2018-07-28T11:50:42.084Z,108224.00
2018-07-28T11:51:42.004Z,111296.00
2018-07-28T11:52:41.915Z,109088.00
2018-07-28T11:53:41.832Z,119648.00
2018-07-28T11:54:41.871Z,118400.00
2018-07-28T11:55:41.664Z,120224.00
2018-07-28T11:56:41.578Z,104768.00
2018-07-28T11:57:41.493Z,95392.00
2018-07-28T11:58:41.408Z,90432.00
2018-07-28T11:59:41.356Z,90208.00
2018-07-28T12:00:41.244Z,91744.00
2018-07-28T12:01:41.305Z,85472.00
2018-07-28T12:02:41.077Z,90976.00
2018-07-28T12:03:40.999Z,87104.00
2018-07-28T12:04:40.943Z,91872.00
2018-07-28T12:05:40.832Z,86048.00
2018-07-28T12:06:40.750Z,66272.00
2018-07-28T12:07:40.665Z,75136.00
2018-07-28T12:08:40.677Z,72640.00
2018-07-28T12:09:40.509Z,73664.00
2018-07-28T12:10:40.455Z,83040.00
2018-07-28T12:11:40.345Z,97152.00
2018-07-28T12:12:40.307Z,37056.00
2018-07-28T12:13:40.187Z,38528.00
2018-07-28T12:14:40.103Z,39392.00